Time;durP1;ratioP1;P1;durP2;ratioP2;P2;SDS_P1;SDS_P2;PMS_P1;PMS_P2;Temp;Humidity;BMP_temperature;BMP_pressure;BME280_temperature;BME280_humidity;BME280_pressure;Samples;Min_cycle;Max_cycle;Signal;HPM_P1;HPM_P2
2022/12/10 00:01:13;;;;;;;34.27;17.83;;;;;;;;;;1832098;76;21561;-53
2022/12/10 00:03:39;;;;;;;32.23;17.63;;;;;;;;;;1835587;76;21270;-52
2022/12/10 00:06:07;;;;;;;36.07;18.63;;;;;;;;;;1832468;76;22133;-52
2022/12/10 00:08:34;;;;;;;37.00;17.50;;;;;;;;;;1830778;76;21049;-52
2022/12/10 00:11:03;;;;;;;28.83;16.03;;;;;;;;;;1833145;76;21053;-53
2022/12/10 00:13:29;;;;;;;31.43;17.97;;;;;;;;;;1831397;77;21115;-52
2022/12/10 00:15:55;;;;;;;36.20;18.50;;;;;;;;;;1835637;76;21926;-52
2022/12/10 00:18:21;;;;;;;28.53;16.70;;;;;;;;;;1831197;76;21039;-52
2022/12/10 00:20:47;;;;;;;27.07;16.60;;;;;;;;;;1833297;76;21085;-52
2022/12/10 00:23:13;;;;;;;25.67;16.00;;;;;;;;;;1832147;76;21272;-52
2022/12/10 00:25:40;;;;;;;28.00;15.20;;;;;;;;;;1831612;77;21088;-52
2022/12/10 00:28:06;;;;;;;29.27;16.07;;;;;;;;;;1828639;76;22505;-52
2022/12/10 00:30:32;;;;;;;23.83;14.03;;;;;;;;;;1829459;77;21653;-52
2022/12/10 00:32:59;;;;;;;24.23;14.07;;;;;;;;;;1821108;76;21003;-52
2022/12/10 00:35:25;;;;;;;25.70;14.83;;;;;;;;;;1829947;76;21076;-53
2022/12/10 00:37:51;;;;;;;24.70;14.53;;;;;;;;;;1828744;76;21033;-52
2022/12/10 00:40:17;;;;;;;24.90;12.90;;;;;;;;;;1828867;76;21803;-52
2022/12/10 00:42:44;;;;;;;24.03;13.73;;;;;;;;;;1830030;77;20954;-52
2022/12/10 00:45:10;;;;;;;19.80;12.47;;;;;;;;;;1833604;76;20967;-52
2022/12/10 00:47:36;;;;;;;19.07;10.37;;;;;;;;;;1834991;76;21412;-52
2022/12/10 00:50:02;;;;;;;19.10;11.03;;;;;;;;;;1831711;76;21010;-51
2022/12/10 00:52:29;;;;;;;16.87;10.53;;;;;;;;;;1839558;76;21377;-52
2022/12/10 00:54:57;;;;;;;18.23;9.57;;;;;;;;;;1832556;76;21011;-51
2022/12/10 00:57:23;;;;;;;16.17;9.07;;;;;;;;;;1834909;76;21403;-51
2022/12/10 00:59:49;;;;;;;11.17;7.70;;;;;;;;;;1831411;76;20958;-52
2022/12/10 01:02:16;;;;;;;14.23;8.83;;;;;;;;;;1833711;76;21009;-51
2022/12/10 01:04:42;;;;;;;11.70;7.30;;;;;;;;;;1831012;76;22417;-51
2022/12/10 01:07:10;;;;;;;10.53;7.47;;;;;;;;;;1829548;76;21515;-51
2022/12/10 01:09:36;;;;;;;12.70;7.77;;;;;;;;;;1834195;76;21114;-51
2022/12/10 01:12:03;;;;;;;12.50;7.43;;;;;;;;;;1835038;76;21046;-51
2022/12/10 01:14:30;;;;;;;14.57;8.90;;;;;;;;;;1828411;76;21499;-51
2022/12/10 01:16:59;;;;;;;12.83;8.33;;;;;;;;;;1833670;76;21821;-52
2022/12/10 01:19:26;;;;;;;18.83;9.30;;;;;;;;;;1835145;76;20961;-51
2022/12/10 01:21:52;;;;;;;16.37;8.33;;;;;;;;;;1834934;77;20943;-51
2022/12/10 01:24:20;;;;;;;13.77;7.63;;;;;;;;;;1831993;76;20958;-51
2022/12/10 01:26:46;;;;;;;14.23;8.00;;;;;;;;;;1829488;76;21396;-51
2022/12/10 01:29:14;;;;;;;11.13;7.23;;;;;;;;;;1830027;76;20985;-51
2022/12/10 01:31:40;;;;;;;15.10;7.07;;;;;;;;;;1829742;77;21025;-51
2022/12/10 01:34:09;;;;;;;11.97;6.73;;;;;;;;;;1828823;76;21053;-51
2022/12/10 01:36:38;;;;;;;8.40;5.77;;;;;;;;;;1830361;77;21778;-52
2022/12/10 01:39:05;;;;;;;6.43;4.33;;;;;;;;;;1825408;76;21038;-50
2022/12/10 01:41:35;;;;;;;8.70;5.43;;;;;;;;;;1826293;76;21831;-52
2022/12/10 01:44:04;;;;;;;8.10;4.90;;;;;;;;;;1830696;76;22190;-51
2022/12/10 01:46:32;;;;;;;5.80;3.50;;;;;;;;;;1828936;76;21013;-51
2022/12/10 01:48:59;;;;;;;7.13;4.57;;;;;;;;;;1828881;76;21696;-51
2022/12/10 01:51:28;;;;;;;4.67;4.00;;;;;;;;;;1827026;76;22223;-51
2022/12/10 01:53:54;;;;;;;5.63;3.37;;;;;;;;;;1828753;76;23497;-51
2022/12/10 01:56:20;;;;;;;4.03;2.60;;;;;;;;;;1828561;76;21486;-50
2022/12/10 01:58:48;;;;;;;4.83;3.53;;;;;;;;;;1822300;77;21030;-50
2022/12/10 02:01:17;;;;;;;6.90;2.70;;;;;;;;;;1832944;76;21490;-51
2022/12/10 02:03:53;;;;;;;3.40;2.97;;;;;;;;;;1830003;76;21466;-50
2022/12/10 02:06:26;;;;;;;3.60;2.53;;;;;;;;;;1830949;76;21882;-51
2022/12/10 02:09:02;;;;;;;3.23;2.43;;;;;;;;;;1825468;76;21009;-51
2022/12/10 02:11:41;;;;;;;1.80;1.60;;;;;;;;;;1834088;76;21072;-50
2022/12/10 02:14:14;;;;;;;3.53;1.83;;;;;;;;;;1825634;76;21052;-51
2022/12/10 02:16:58;;;;;;;3.03;1.87;;;;;;;;;;1826715;77;21453;-51
2022/12/10 02:19:39;;;;;;;;;;;;;;;;;;1826541;76;21775;-50
2022/12/10 02:22:05;;;;;;;1.60;1.33;;;;;;;;;;1823297;76;20597;-50
2022/12/10 02:24:34;;;;;;;1.63;1.47;;;;;;;;;;1795952;77;21096;-51
2022/12/10 02:27:16;;;;;;;1.77;1.40;;;;;;;;;;1830084;77;21041;-51
2022/12/10 02:29:43;;;;;;;2.07;1.20;;;;;;;;;;1825764;76;21511;-50
2022/12/10 02:32:20;;;;;;;1.53;1.23;;;;;;;;;;1828840;76;21967;-50
2022/12/10 02:34:51;;;;;;;1.60;1.20;;;;;;;;;;1803134;77;21084;-50
2022/12/10 02:37:20;;;;;;;1.60;1.03;;;;;;;;;;1834326;76;21081;-50
2022/12/10 02:39:49;;;;;;;1.40;1.00;;;;;;;;;;1831321;76;21061;-50
2022/12/10 02:42:16;;;;;;;1.80;1.50;;;;;;;;;;1827094;76;21071;-51
2022/12/10 02:44:43;;;;;;;1.47;1.33;;;;;;;;;;1827358;76;21822;-51
2022/12/10 02:47:10;;;;;;;1.40;1.10;;;;;;;;;;1830521;76;21405;-50
2022/12/10 04:36:15;;;;;;;2.50;2.00;;;;;;;;;;1800280;77;23413;-55
2022/12/10 04:38:42;;;;;;;2.67;2.17;;;;;;;;;;1768056;78;21518;-55
2022/12/10 04:41:15;;;;;;;1.70;1.60;;;;;;;;;;1766067;78;21919;-55
2022/12/10 04:43:36;;;;;;;2.17;1.93;;;;;;;;;;1768616;78;21544;-55
2022/12/10 04:46:02;;;;;;;2.33;1.77;;;;;;;;;;1769221;78;21033;-56
2022/12/10 04:48:29;;;;;;;2.10;1.87;;;;;;;;;;1769993;79;21042;-55
2022/12/10 04:50:55;;;;;;;2.20;1.83;;;;;;;;;;1770688;79;21100;-56
2022/12/10 04:53:22;;;;;;;2.27;1.30;;;;;;;;;;1771397;79;21818;-55
2022/12/10 04:55:48;;;;;;;2.50;1.67;;;;;;;;;;1765220;79;21572;-56
2022/12/10 04:58:14;;;;;;;2.10;1.50;;;;;;;;;;1771815;78;21072;-55
2022/12/10 05:00:40;;;;;;;2.20;1.50;;;;;;;;;;1775193;78;21041;-56
2022/12/10 05:03:07;;;;;;;2.03;1.83;;;;;;;;;;1773340;79;21635;-56
2022/12/10 05:05:34;;;;;;;2.13;1.93;;;;;;;;;;1771751;79;21888;-56
2022/12/10 05:08:00;;;;;;;3.03;2.23;;;;;;;;;;1771289;78;21057;-56
2022/12/10 05:10:26;;;;;;;2.47;1.87;;;;;;;;;;1771022;79;21064;-55
2022/12/10 05:12:52;;;;;;;3.30;1.83;;;;;;;;;;1772417;78;21728;-56
2022/12/10 05:15:19;;;;;;;2.03;1.53;;;;;;;;;;1771184;79;21065;-56
2022/12/10 05:17:45;;;;;;;2.03;1.53;;;;;;;;;;1769229;79;21823;-56
2022/12/10 05:20:11;;;;;;;3.07;1.80;;;;;;;;;;1776275;78;21604;-56
2022/12/10 05:25:23;;;;;;;1.52;1.00;;;;;;;;;;1768377;79;21490;-56
2022/12/10 05:27:49;;;;;;;1.70;1.20;;;;;;;;;;1769326;78;21037;-56
2022/12/10 05:30:15;;;;;;;1.70;1.00;;;;;;;;;;1768971;78;21822;-56
2022/12/10 05:32:41;;;;;;;1.37;1.00;;;;;;;;;;1768228;79;21061;-56
2022/12/10 05:35:08;;;;;;;1.30;1.00;;;;;;;;;;1777432;78;21045;-56
2022/12/10 05:37:35;;;;;;;1.50;1.40;;;;;;;;;;1779829;79;21067;-56
2022/12/10 05:40:01;;;;;;;1.20;0.90;;;;;;;;;;1784199;78;20978;-57
2022/12/10 05:42:27;;;;;;;1.53;1.17;;;;;;;;;;1785363;78;21865;-58
2022/12/10 05:44:54;;;;;;;1.20;1.10;;;;;;;;;;1779625;79;21485;-58
2022/12/10 05:47:20;;;;;;;1.03;0.90;;;;;;;;;;1779926;79;21352;-57
2022/12/10 05:49:47;;;;;;;1.00;0.83;;;;;;;;;;1773515;79;21094;-58
2022/12/10 05:52:13;;;;;;;1.00;0.90;;;;;;;;;;1779881;79;20966;-57
2022/12/10 05:54:40;;;;;;;1.00;0.90;;;;;;;;;;1785809;78;21857;-57
2022/12/10 05:57:06;;;;;;;1.17;0.90;;;;;;;;;;1783005;79;21009;-57
2022/12/10 05:59:32;;;;;;;3.50;1.30;;;;;;;;;;1781756;78;21065;-56
2022/12/10 06:01:58;;;;;;;1.30;1.10;;;;;;;;;;1777512;79;21041;-56
2022/12/10 06:04:27;;;;;;;1.20;0.90;;;;;;;;;;1778794;79;21003;-55
2022/12/10 06:06:53;;;;;;;1.40;1.00;;;;;;;;;;1782491;79;22386;-55
2022/12/10 06:09:19;;;;;;;2.07;1.33;;;;;;;;;;1782296;78;21550;-55
2022/12/10 06:11:46;;;;;;;1.20;0.90;;;;;;;;;;1778829;79;21398;-55
2022/12/10 06:14:12;;;;;;;1.53;1.00;;;;;;;;;;1776083;79;21086;-55
2022/12/10 06:16:41;;;;;;;1.50;0.90;;;;;;;;;;1783705;79;20999;-55
2022/12/10 06:19:07;;;;;;;1.37;1.07;;;;;;;;;;1779758;78;21790;-55
2022/12/10 06:21:34;;;;;;;1.40;1.10;;;;;;;;;;1781465;79;21373;-55
2022/12/10 06:24:01;;;;;;;4.00;1.93;;;;;;;;;;1780506;79;21084;-54
2022/12/10 06:26:27;;;;;;;1.60;1.10;;;;;;;;;;1782911;78;21052;-56
2022/12/10 06:28:53;;;;;;;6.83;5.87;;;;;;;;;;1781461;78;21644;-56
2022/12/10 06:31:19;;;;;;;4.33;2.83;;;;;;;;;;1781009;78;21826;-54
2022/12/10 06:33:46;;;;;;;6.30;3.07;;;;;;;;;;1777855;78;21059;-55
2022/12/10 06:38:52;;;;;;;10.90;6.60;;;;;;;;;;1791141;77;27427;-54
2022/12/10 06:41:20;;;;;;;7.97;5.00;;;;;;;;;;1798886;78;21052;-55
2022/12/10 06:43:46;;;;;;;3.73;1.53;;;;;;;;;;1798317;78;21768;-56
2022/12/10 06:46:13;;;;;;;4.17;2.57;;;;;;;;;;1800807;78;20984;-55
2022/12/10 06:48:40;;;;;;;5.30;2.70;;;;;;;;;;1795779;78;20958;-55
2022/12/10 06:51:06;;;;;;;6.77;3.23;;;;;;;;;;1800311;77;20994;-55
2022/12/10 06:53:34;;;;;;;1.60;1.40;;;;;;;;;;1800767;78;21367;-55
2022/12/10 06:56:00;;;;;;;4.10;2.63;;;;;;;;;;1800302;78;21827;-55
2022/12/10 06:58:28;;;;;;;8.87;4.27;;;;;;;;;;1802115;78;21474;-55
2022/12/10 07:00:54;;;;;;;4.07;2.90;;;;;;;;;;1803274;77;21542;-55
2022/12/10 07:03:20;;;;;;;16.13;8.23;;;;;;;;;;1795936;78;21041;-55
2022/12/10 07:05:48;;;;;;;2.23;1.70;;;;;;;;;;1799773;78;21079;-56
2022/12/10 07:08:17;;;;;;;4.83;2.50;;;;;;;;;;1797577;77;21836;-55
2022/12/10 07:10:43;;;;;;;8.97;3.80;;;;;;;;;;1791193;78;21070;-55
2022/12/10 07:13:09;;;;;;;4.33;2.20;;;;;;;;;;1795763;78;21077;-55
2022/12/10 07:15:35;;;;;;;2.83;1.60;;;;;;;;;;1805135;78;21036;-55
2022/12/10 07:18:01;;;;;;;3.00;2.20;;;;;;;;;;1792989;78;21634;-56
2022/12/10 07:20:29;;;;;;;2.10;1.50;;;;;;;;;;1800614;78;22406;-55
2022/12/10 07:22:56;;;;;;;1.70;1.60;;;;;;;;;;1796737;78;21100;-56
2022/12/10 07:25:22;;;;;;;2.80;2.10;;;;;;;;;;1780695;78;21659;-56
2022/12/10 07:27:48;;;;;;;2.00;1.50;;;;;;;;;;1775967;78;21422;-56
2022/12/10 07:30:14;;;;;;;2.33;1.33;;;;;;;;;;1771571;79;21045;-55
2022/12/10 07:32:40;;;;;;;1.50;1.20;;;;;;;;;;1771337;79;22646;-55
2022/12/10 07:35:07;;;;;;;1.10;0.90;;;;;;;;;;1769314;79;21557;-55
2022/12/10 07:37:33;;;;;;;1.40;0.90;;;;;;;;;;1767250;79;21418;-55
2022/12/10 07:39:59;;;;;;;2.30;0.83;;;;;;;;;;1760173;80;21534;-55
2022/12/10 07:42:25;;;;;;;2.43;1.17;;;;;;;;;;1759598;80;21033;-56
2022/12/10 07:44:51;;;;;;;1.40;0.90;;;;;;;;;;1758306;80;21944;-55
2022/12/10 07:47:18;;;;;;;1.30;1.00;;;;;;;;;;1758572;80;21057;-55
2022/12/10 07:49:44;;;;;;;1.57;1.17;;;;;;;;;;1759804;80;21065;-55
2022/12/10 07:52:10;;;;;;;2.30;1.00;;;;;;;;;;1757719;80;21240;-55
2022/12/10 07:54:36;;;;;;;1.53;1.00;;;;;;;;;;1764633;79;21458;-54
2022/12/10 07:57:03;;;;;;;1.07;0.90;;;;;;;;;;1762732;80;21862;-55
2022/12/10 07:59:30;;;;;;;1.20;1.00;;;;;;;;;;1760300;80;21077;-55
2022/12/10 08:01:57;;;;;;;1.30;1.00;;;;;;;;;;1756524;80;21059;-55
2022/12/10 08:04:23;;;;;;;1.20;1.10;;;;;;;;;;1757555;79;21077;-55
2022/12/10 08:06:49;;;;;;;2.50;0.90;;;;;;;;;;1758243;80;21083;-55
2022/12/10 08:09:15;;;;;;;1.30;1.00;;;;;;;;;;1761131;80;23227;-55
2022/12/10 08:11:42;;;;;;;1.67;1.10;;;;;;;;;;1755240;80;21049;-56
2022/12/10 08:14:08;;;;;;;1.37;0.93;;;;;;;;;;1760252;80;21612;-55
2022/12/10 08:16:36;;;;;;;1.60;1.13;;;;;;;;;;1757175;80;21553;-56
2022/12/10 08:19:03;;;;;;;1.60;1.20;;;;;;;;;;1761687;80;21102;-55
2022/12/10 08:21:30;;;;;;;2.87;2.30;;;;;;;;;;1752755;80;22456;-56
2022/12/10 08:23:56;;;;;;;2.43;1.27;;;;;;;;;;1758839;79;21075;-55
2022/12/10 08:26:24;;;;;;;2.60;1.30;;;;;;;;;;1758729;80;21024;-56
2022/12/10 08:28:50;;;;;;;2.70;1.37;;;;;;;;;;1758760;80;21050;-55
2022/12/10 08:31:18;;;;;;;3.77;1.57;;;;;;;;;;1760884;79;21045;-55
2022/12/10 08:33:44;;;;;;;2.20;1.60;;;;;;;;;;1759673;80;22445;-56
2022/12/10 08:36:13;;;;;;;3.10;1.20;;;;;;;;;;1757428;80;22577;-55
2022/12/10 08:38:39;;;;;;;3.40;1.23;;;;;;;;;;1762330;79;21066;-55
2022/12/10 08:41:10;;;;;;;3.23;2.73;;;;;;;;;;1759742;80;21082;-55
2022/12/10 08:43:36;;;;;;;3.77;1.67;;;;;;;;;;1763440;79;21115;-55
2022/12/10 08:46:02;;;;;;;1.50;1.00;;;;;;;;;;1760553;79;21831;-55
2022/12/10 08:48:29;;;;;;;2.30;1.30;;;;;;;;;;1725542;82;21612;-55
2022/12/10 08:50:55;;;;;;;1.50;1.10;;;;;;;;;;1762502;79;21124;-55
2022/12/10 08:53:22;;;;;;;1.60;1.10;;;;;;;;;;1769569;79;21057;-56
2022/12/10 08:55:52;;;;;;;1.60;1.10;;;;;;;;;;1766546;80;21109;-57
2022/12/10 08:58:18;;;;;;;1.73;1.13;;;;;;;;;;1766881;79;21772;-57
2022/12/10 09:00:44;;;;;;;1.50;1.17;;;;;;;;;;1727678;80;21082;-56
2022/12/10 09:03:11;;;;;;;1.67;0.97;;;;;;;;;;1769150;79;21163;-56
2022/12/10 09:05:37;;;;;;;2.40;0.93;;;;;;;;;;1757839;80;21365;-56
2022/12/10 09:08:04;;;;;;;1.27;1.03;;;;;;;;;;1761725;80;21062;-56
2022/12/10 09:10:31;;;;;;;1.67;0.90;;;;;;;;;;1760999;80;22006;-56
2022/12/10 09:12:57;;;;;;;1.30;0.90;;;;;;;;;;1760501;79;21045;-56
2022/12/10 09:15:24;;;;;;;1.10;0.87;;;;;;;;;;1761513;79;21049;-56
2022/12/10 09:17:50;;;;;;;1.23;1.00;;;;;;;;;;1764674;79;21896;-57
2022/12/10 09:20:16;;;;;;;1.83;1.10;;;;;;;;;;1762848;80;21112;-57
2022/12/10 09:22:42;;;;;;;1.73;0.97;;;;;;;;;;1762572;79;21825;-57
2022/12/10 09:25:15;;;;;;;1.23;0.80;;;;;;;;;;1763878;79;21130;-57
2022/12/10 09:27:40;;;;;;;1.23;0.80;;;;;;;;;;1765555;80;21184;-57
2022/12/10 09:30:08;;;;;;;1.20;0.70;;;;;;;;;;1762954;79;21049;-57
2022/12/10 09:32:34;;;;;;;1.07;0.87;;;;;;;;;;1768682;80;20995;-57
2022/12/10 09:35:00;;;;;;;3.10;1.10;;;;;;;;;;1772077;79;23172;-57
2022/12/10 09:37:26;;;;;;;1.33;1.07;;;;;;;;;;1768502;79;21489;-57
2022/12/10 09:39:52;;;;;;;2.43;1.33;;;;;;;;;;1764685;80;20980;-57
2022/12/10 09:42:39;;;;;;;1.20;0.80;;;;;;;;;;1768663;79;20994;-58
2022/12/10 09:45:20;;;;;;;1.10;0.80;;;;;;;;;;1772960;79;21041;-57
2022/12/10 09:47:50;;;;;;;2.07;0.83;;;;;;;;;;1766830;79;21714;-58
2022/12/10 09:50:22;;;;;;;2.37;1.30;;;;;;;;;;1770292;80;21025;-57
2022/12/10 09:52:50;;;;;;;2.77;0.77;;;;;;;;;;1766344;79;21164;-58
2022/12/10 09:55:19;;;;;;;1.50;0.83;;;;;;;;;;1729756;81;21034;-58
2022/12/10 10:01:01;;;;;;;1.80;0.90;;;;;;;;;;1854714;74;22418;-58
2022/12/10 10:03:32;;;;;;;1.50;0.90;;;;;;;;;;1852599;75;21029;-59
2022/12/10 10:05:59;;;;;;;1.70;1.00;;;;;;;;;;1840746;77;21952;-59
2022/12/10 10:08:38;;;;;;;1.53;1.20;;;;;;;;;;1846284;75;21288;-59
2022/12/10 10:11:04;;;;;;;1.53;1.20;;;;;;;;;;1853612;75;21032;-58
2022/12/10 10:13:37;;;;;;;1.77;1.00;;;;;;;;;;1848306;76;21577;-59
2022/12/10 10:16:17;;;;;;;1.60;1.10;;;;;;;;;;1850452;75;21064;-58
2022/12/10 10:18:46;;;;;;;1.87;1.40;;;;;;;;;;1843437;76;21868;-59
2022/12/10 10:21:15;;;;;;;2.43;1.57;;;;;;;;;;1848220;75;20950;-59
2022/12/10 10:23:42;;;;;;;1.77;1.30;;;;;;;;;;1850432;76;21093;-58
2022/12/10 10:26:10;;;;;;;2.27;1.07;;;;;;;;;;1845653;76;21072;-58
2022/12/10 10:28:37;;;;;;;1.20;1.10;;;;;;;;;;1845187;76;21051;-58
2022/12/10 10:32:12;;;;;;;1.37;1.10;;;;;;;;;;1779255;78;23027;-58
2022/12/10 10:34:39;;;;;;;1.40;1.10;;;;;;;;;;1754506;80;21989;-58
2022/12/10 10:39:36;;;;;;;1.17;0.97;;;;;;;;;;1792831;77;23558;-57
2022/12/10 10:42:08;;;;;;;1.83;1.60;;;;;;;;;;1768967;79;21044;-58
2022/12/10 10:44:36;;;;;;;1.87;1.40;;;;;;;;;;1758912;79;21787;-57
2022/12/10 10:47:02;;;;;;;2.43;1.50;;;;;;;;;;1762531;78;21923;-58
2022/12/10 10:49:32;;;;;;;1.77;1.50;;;;;;;;;;1761645;78;21126;-57
2022/12/10 10:52:00;;;;;;;1.67;1.40;;;;;;;;;;1765007;80;21049;-57
2022/12/10 10:54:38;;;;;;;1.80;1.40;;;;;;;;;;1765444;79;21037;-57
2022/12/10 10:57:23;;;;;;;1.87;1.30;;;;;;;;;;1767842;78;21803;-57
2022/12/10 10:59:51;;;;;;;1.90;1.10;;;;;;;;;;1762536;79;21103;-57
2022/12/10 11:02:35;;;;;;;2.57;1.30;;;;;;;;;;1762832;79;21497;-58
2022/12/10 11:05:10;;;;;;;2.72;1.80;;;;;;;;;;1766512;79;20995;-57
2022/12/10 11:07:38;;;;;;;2.67;1.70;;;;;;;;;;1764456;79;21159;-57
2022/12/10 11:10:08;;;;;;;1.57;1.33;;;;;;;;;;1767374;80;21847;-57
2022/12/10 11:12:37;;;;;;;1.97;1.10;;;;;;;;;;1746463;79;21095;-57
2022/12/10 11:15:25;;;;;;;1.80;1.20;;;;;;;;;;1767101;79;21044;-57
2022/12/10 11:17:53;;;;;;;2.20;1.70;;;;;;;;;;1754873;79;21527;-56
2022/12/10 11:20:30;;;;;;;2.20;1.10;;;;;;;;;;1758778;79;21040;-57
2022/12/10 11:23:02;;;;;;;1.83;1.60;;;;;;;;;;1766255;79;23133;-56
2022/12/10 11:25:44;;;;;;;2.03;1.57;;;;;;;;;;1748170;78;21061;-57
2022/12/10 11:28:48;;;;;;;1.40;1.30;;;;;;;;;;1734685;80;21053;-57
2022/12/10 11:31:43;;;;;;;1.77;1.33;;;;;;;;;;1711555;80;21501;-56
2022/12/10 11:34:17;;;;;;;;;;;;;;;;;;1739398;80;21962;-57
2022/12/10 11:37:01;;;;;;;1.67;1.50;;;;;;;;;;1739568;80;21805;-58
2022/12/10 11:39:34;;;;;;;2.02;1.20;;;;;;;;;;1694872;81;21396;-56
2022/12/10 11:42:04;;;;;;;1.67;1.57;;;;;;;;;;1720527;81;21053;-58
2022/12/10 11:44:55;;;;;;;1.40;1.27;;;;;;;;;;1727623;81;21046;-57
2022/12/10 11:47:37;;;;;;;1.80;1.30;;;;;;;;;;1725493;81;21014;-56
2022/12/10 11:50:19;;;;;;;1.40;1.20;;;;;;;;;;1725001;80;21807;-58
2022/12/10 11:53:12;;;;;;;2.03;1.57;;;;;;;;;;1745402;80;22496;-56
2022/12/10 11:55:45;;;;;;;22.20;14.80;;;;;;;;;;1724693;81;21678;-57
2022/12/10 11:58:31;;;;;;;19.37;11.00;;;;;;;;;;1718759;81;22291;-56
2022/12/10 12:01:01;;;;;;;15.80;12.63;;;;;;;;;;1726514;81;21077;-57
2022/12/10 12:03:46;;;;;;;23.77;15.03;;;;;;;;;;1732012;81;21839;-57
2022/12/10 12:06:34;;;;;;;46.02;27.55;;;;;;;;;;1723538;81;21161;-58
2022/12/10 12:09:16;;;;;;;16.07;10.63;;;;;;;;;;1727274;81;21049;-57
2022/12/10 12:11:51;;;;;;;6.60;5.90;;;;;;;;;;1723869;81;21104;-57
2022/12/10 12:14:21;;;;;;;3.57;3.27;;;;;;;;;;1738057;81;21098;-57
2022/12/10 12:16:54;;;;;;;3.97;3.57;;;;;;;;;;1723849;81;21939;-57
2022/12/10 12:19:26;;;;;;;5.07;4.57;;;;;;;;;;1726606;80;20984;-57
2022/12/10 12:21:53;;;;;;;7.53;5.57;;;;;;;;;;1726229;81;21010;-58
2022/12/10 12:24:25;;;;;;;6.13;4.70;;;;;;;;;;1723751;81;21428;-58
2022/12/10 12:26:54;;;;;;;4.57;3.63;;;;;;;;;;1721387;80;21618;-56
2022/12/10 12:29:29;;;;;;;2.83;2.50;;;;;;;;;;1735014;81;21830;-57
2022/12/10 12:32:02;;;;;;;;;;;;;;;;;;1727544;81;21001;-56
2022/12/10 12:34:49;;;;;;;3.30;3.00;;;;;;;;;;1728400;81;20447;-57
2022/12/10 12:37:16;;;;;;;3.63;3.33;;;;;;;;;;1730534;81;20974;-57
2022/12/10 12:40:03;;;;;;;2.57;1.67;;;;;;;;;;1714684;81;21022;-56
2022/12/10 12:42:33;;;;;;;2.63;2.23;;;;;;;;;;1712579;81;21795;-56
2022/12/10 12:45:12;;;;;;;3.10;2.67;;;;;;;;;;1714580;81;21028;-57
2022/12/10 12:47:41;;;;;;;2.53;2.33;;;;;;;;;;1714401;81;21046;-57
2022/12/10 12:50:20;;;;;;;2.10;1.83;;;;;;;;;;1712104;81;21576;-58
2022/12/10 12:52:57;;;;;;;3.17;1.90;;;;;;;;;;1723001;81;21004;-58
2022/12/10 12:55:45;;;;;;;4.27;2.90;;;;;;;;;;1713599;81;22888;-56
2022/12/10 12:58:21;;;;;;;3.67;3.37;;;;;;;;;;1715826;81;22605;-57
2022/12/10 13:00:50;;;;;;;6.77;5.13;;;;;;;;;;1711233;81;21098;-56
2022/12/10 13:03:34;;;;;;;4.77;4.30;;;;;;;;;;1715950;81;21503;-56
2022/12/10 13:06:25;;;;;;;6.80;6.13;;;;;;;;;;1711716;81;21036;-57
2022/12/10 13:08:55;;;;;;;6.63;6.07;;;;;;;;;;1712709;81;21035;-56
2022/12/10 13:11:32;;;;;;;7.17;4.93;;;;;;;;;;1703131;81;21038;-57
2022/12/10 13:14:08;;;;;;;4.17;3.87;;;;;;;;;;1718481;81;21042;-56
2022/12/10 13:16:41;;;;;;;6.97;5.57;;;;;;;;;;1710425;81;21198;-57
2022/12/10 13:19:23;;;;;;;5.17;3.83;;;;;;;;;;1717379;81;21111;-56
2022/12/10 13:21:58;;;;;;;3.03;2.40;;;;;;;;;;1719201;81;22491;-54
2022/12/10 13:24:40;;;;;;;3.57;3.20;;;;;;;;;;1709650;81;21516;-56
2022/12/10 13:27:34;;;;;;;3.20;2.50;;;;;;;;;;1710857;81;21138;-56
2022/12/10 13:30:10;;;;;;;2.80;2.57;;;;;;;;;;1718566;81;21077;-56
2022/12/10 13:32:40;;;;;;;3.27;2.63;;;;;;;;;;1715943;81;21070;-55
2022/12/10 13:35:16;;;;;;;4.20;3.80;;;;;;;;;;1719428;81;21278;-56
2022/12/10 13:37:52;;;;;;;5.03;4.57;;;;;;;;;;1712615;81;21165;-56
2022/12/10 13:46:34;;;;;;;10.90;8.40;;;;;;;;;;1717160;81;21100;-55
2022/12/10 13:49:02;;;;;;;8.20;6.80;;;;;;;;;;1716984;81;22595;-55
2022/12/10 13:51:40;;;;;;;5.73;5.13;;;;;;;;;;1676062;83;21070;-55
2022/12/10 13:54:14;;;;;;;5.37;4.17;;;;;;;;;;1724141;81;21069;-56
2022/12/10 13:56:43;;;;;;;5.87;3.83;;;;;;;;;;1715686;81;21063;-55
2022/12/10 13:59:32;;;;;;;5.37;4.13;;;;;;;;;;1715693;81;21038;-55
2022/12/10 14:02:05;;;;;;;7.93;5.83;;;;;;;;;;1730465;81;21785;-55
2022/12/10 14:04:52;;;;;;;14.43;8.90;;;;;;;;;;1718526;81;21059;-55
2022/12/10 14:07:18;;;;;;;19.93;12.97;;;;;;;;;;1724094;81;21033;-56
2022/12/10 14:09:48;;;;;;;69.63;39.30;;;;;;;;;;1728388;81;21050;-56
2022/12/10 14:12:16;;;;;;;39.30;21.13;;;;;;;;;;1725357;81;21061;-55
2022/12/10 14:14:50;;;;;;;26.67;16.03;;;;;;;;;;1727127;81;23289;-56
2022/12/10 14:17:21;;;;;;;22.53;14.90;;;;;;;;;;1688454;83;21053;-55
2022/12/10 14:19:48;;;;;;;28.40;18.73;;;;;;;;;;1727594;81;20991;-55
2022/12/10 14:22:18;;;;;;;31.87;21.23;;;;;;;;;;1689289;82;21534;-55
2022/12/10 14:24:44;;;;;;;37.97;22.60;;;;;;;;;;1727758;81;21013;-55
2022/12/10 14:27:18;;;;;;;43.80;24.87;;;;;;;;;;1728881;81;21822;-55
2022/12/10 14:29:46;;;;;;;47.83;26.42;;;;;;;;;;1732220;81;20967;-55
2022/12/10 14:32:14;;;;;;;42.90;26.97;;;;;;;;;;1724764;81;21083;-55
2022/12/10 14:34:40;;;;;;;34.47;20.47;;;;;;;;;;1730913;81;21004;-55
2022/12/10 14:37:07;;;;;;;32.43;22.30;;;;;;;;;;1736192;81;20966;-55
2022/12/10 14:39:33;;;;;;;17.90;12.17;;;;;;;;;;1681149;82;22463;-56
2022/12/10 14:42:04;;;;;;;17.53;12.23;;;;;;;;;;1726356;81;20987;-56
2022/12/10 14:44:30;;;;;;;11.37;7.10;;;;;;;;;;1722424;81;21384;-56
2022/12/10 14:47:05;;;;;;;13.17;9.37;;;;;;;;;;1721027;81;21039;-56
2022/12/10 14:52:20;;;;;;;47.10;29.57;;;;;;;;;;1792224;78;22536;-57
2022/12/10 14:54:48;;;;;;;27.90;18.10;;;;;;;;;;1772928;79;20982;-57
2022/12/10 14:57:20;;;;;;;25.80;17.80;;;;;;;;;;1777922;79;21821;-58
2022/12/10 15:00:06;;;;;;;41.23;28.87;;;;;;;;;;1773052;79;20979;-56
2022/12/10 15:02:44;;;;;;;81.40;60.00;;;;;;;;;;1777359;79;22165;-57
2022/12/10 15:05:18;;;;;;;58.47;41.57;;;;;;;;;;1778494;79;22076;-56
2022/12/10 15:07:54;;;;;;;71.97;51.60;;;;;;;;;;1774780;79;21147;-57
2022/12/10 15:10:26;;;;;;;65.17;48.03;;;;;;;;;;1772667;79;21832;-57
2022/12/10 15:12:52;;;;;;;42.47;29.77;;;;;;;;;;1773801;79;21053;-57
2022/12/10 15:15:25;;;;;;;36.00;22.60;;;;;;;;;;1768480;79;21689;-58
2022/12/10 15:18:09;;;;;;;126.67;57.83;;;;;;;;;;1781086;79;21320;-56
2022/12/10 15:20:41;;;;;;;79.20;41.20;;;;;;;;;;1750024;79;21030;-56
2022/12/10 15:23:32;;;;;;;53.67;31.80;;;;;;;;;;1772175;79;21792;-56
2022/12/10 15:26:24;;;;;;;50.33;28.33;;;;;;;;;;1747714;79;21029;-56
2022/12/10 15:28:51;;;;;;;50.57;26.50;;;;;;;;;;1743496;80;20970;-57
2022/12/10 15:31:27;;;;;;;49.67;29.60;;;;;;;;;;1741619;80;21044;-57
2022/12/10 15:33:57;;;;;;;45.50;25.37;;;;;;;;;;1740692;80;21033;-57
2022/12/10 15:36:33;;;;;;;47.87;22.97;;;;;;;;;;1745394;80;22702;-57
2022/12/10 15:39:04;;;;;;;43.97;23.70;;;;;;;;;;1709283;81;21050;-57
2022/12/10 15:41:46;;;;;;;48.03;24.40;;;;;;;;;;1711082;81;21110;-57
2022/12/10 15:44:32;;;;;;;60.10;25.27;;;;;;;;;;1711769;81;21369;-58
2022/12/10 15:47:11;;;;;;;43.93;23.60;;;;;;;;;;1702760;81;21133;-58
2022/12/10 15:49:37;;;;;;;34.73;19.83;;;;;;;;;;1709319;81;21910;-58
2022/12/10 15:52:04;;;;;;;35.67;19.80;;;;;;;;;;1672565;83;21115;-57
2022/12/10 15:54:34;;;;;;;26.73;14.83;;;;;;;;;;1709721;82;21073;-57
2022/12/10 15:57:02;;;;;;;25.27;16.73;;;;;;;;;;1668266;83;21046;-58
2022/12/10 15:59:30;;;;;;;32.47;17.77;;;;;;;;;;1707748;82;21087;-58
2022/12/10 16:01:56;;;;;;;32.33;17.90;;;;;;;;;;1664599;84;22255;-58
2022/12/10 16:04:22;;;;;;;34.37;18.67;;;;;;;;;;1704570;82;21080;-58
2022/12/10 16:06:49;;;;;;;41.40;20.67;;;;;;;;;;1704110;82;21708;-58
2022/12/10 16:09:15;;;;;;;39.03;20.23;;;;;;;;;;1664254;84;21695;-58
2022/12/10 16:11:41;;;;;;;36.57;19.93;;;;;;;;;;1704412;82;21355;-59
2022/12/10 16:14:08;;;;;;;35.37;18.37;;;;;;;;;;1666221;84;21898;-58
2022/12/10 16:16:35;;;;;;;31.10;17.10;;;;;;;;;;1665870;83;21184;-58
2022/12/10 16:19:03;;;;;;;33.10;18.40;;;;;;;;;;1665267;83;21581;-59
2022/12/10 16:21:31;;;;;;;33.27;19.00;;;;;;;;;;1681169;83;21091;-59
2022/12/10 16:23:57;;;;;;;31.53;18.90;;;;;;;;;;1707233;82;21072;-59
2022/12/10 16:26:23;;;;;;;36.37;19.47;;;;;;;;;;1701215;82;21828;-58
2022/12/10 16:28:50;;;;;;;39.23;20.73;;;;;;;;;;1701721;82;21076;-59
2022/12/10 16:31:18;;;;;;;27.17;16.87;;;;;;;;;;1699951;82;21514;-57
2022/12/10 16:33:44;;;;;;;25.90;16.00;;;;;;;;;;1674109;83;21181;-57
2022/12/10 16:36:11;;;;;;;23.90;14.57;;;;;;;;;;1659094;84;21110;-58
2022/12/10 16:38:38;;;;;;;20.20;13.30;;;;;;;;;;1677457;83;21908;-57
2022/12/10 16:41:08;;;;;;;20.87;13.20;;;;;;;;;;1701086;82;21057;-58
2022/12/10 16:43:34;;;;;;;16.90;12.70;;;;;;;;;;1673118;83;21090;-58
2022/12/10 16:46:00;;;;;;;17.13;11.93;;;;;;;;;;1677514;83;21292;-59
2022/12/10 16:48:27;;;;;;;24.43;19.00;;;;;;;;;;1678045;83;21063;-58
2022/12/10 16:50:53;;;;;;;22.50;19.23;;;;;;;;;;1675394;83;22215;-57
2022/12/10 16:53:22;;;;;;;18.13;14.40;;;;;;;;;;1694187;82;21411;-58
2022/12/10 16:55:48;;;;;;;18.13;15.50;;;;;;;;;;1733052;80;21093;-57
2022/12/10 16:58:15;;;;;;;17.23;13.50;;;;;;;;;;1726943;80;21136;-57
2022/12/10 17:00:48;;;;;;;20.17;14.47;;;;;;;;;;1727717;80;21669;-58